sensor_id;sensor_type;location;lat;lon;timestamp;pressure;altitude;pressure_sealevel;temperature;humidity
6224;BME280;3145;42.726;23.342;2023-06-10T00:00:00;71400.72;;;-142.70;81.04
6224;BME280;3145;42.726;23.342;2023-06-10T00:02:28;71408.78;;;-142.70;80.88
6224;BME280;3145;42.726;23.342;2023-06-10T00:04:56;71400.72;;;-142.70;80.68
6224;BME280;3145;42.726;23.342;2023-06-10T00:07:23;71394.69;;;-142.70;80.44
6224;BME280;3145;42.726;23.342;2023-06-10T00:09:49;71400.72;;;-142.70;79.51
6224;BME280;3145;42.726;23.342;2023-06-10T00:12:16;71392.69;;;-142.70;80.08
6224;BME280;3145;42.726;23.342;2023-06-10T00:14:43;71392.69;;;-142.70;80.02
6224;BME280;3145;42.726;23.342;2023-06-10T00:17:10;71384.63;;;-142.70;79.87
6224;BME280;3145;42.726;23.342;2023-06-10T00:19:36;71372.53;;;-142.70;79.59
6224;BME280;3145;42.726;23.342;2023-06-10T00:22:08;71368.50;;;-142.70;79.30
6224;BME280;3145;42.726;23.342;2023-06-10T00:24:35;71366.50;;;-142.70;79.20
6224;BME280;3145;42.726;23.342;2023-06-10T00:27:03;71368.50;;;-142.70;79.20
6224;BME280;3145;42.726;23.342;2023-06-10T00:29:30;71364.47;;;-142.70;78.96
6224;BME280;3145;42.726;23.342;2023-06-10T00:31:57;71356.44;;;-142.70;79.03
6224;BME280;3145;42.726;23.342;2023-06-10T00:34:24;71358.44;;;-142.70;78.61
6224;BME280;3145;42.726;23.342;2023-06-10T00:36:51;71356.44;;;-142.70;78.65
6224;BME280;3145;42.726;23.342;2023-06-10T00:39:19;71344.34;;;-142.70;78.20
6224;BME280;3145;42.726;23.342;2023-06-10T00:41:46;71340.31;;;-142.70;78.11
6224;BME280;3145;42.726;23.342;2023-06-10T00:44:12;71336.28;;;-142.70;78.15
6224;BME280;3145;42.726;23.342;2023-06-10T00:46:39;71332.25;;;-142.70;77.92
6224;BME280;3145;42.726;23.342;2023-06-10T00:49:07;71330.25;;;-142.70;77.72
6224;BME280;3145;42.726;23.342;2023-06-10T00:51:34;71328.22;;;-142.70;77.32
6224;BME280;3145;42.726;23.342;2023-06-10T00:54:02;71328.22;;;-142.70;77.42
6224;BME280;3145;42.726;23.342;2023-06-10T00:56:31;71340.31;;;-142.70;77.25
6224;BME280;3145;42.726;23.342;2023-06-10T00:58:58;71340.31;;;-142.70;77.57
6224;BME280;3145;42.726;23.342;2023-06-10T01:01:25;71340.31;;;-142.70;77.93
6224;BME280;3145;42.726;23.342;2023-06-10T01:03:52;71342.31;;;-142.70;78.37
6224;BME280;3145;42.726;23.342;2023-06-10T01:06:24;71344.34;;;-142.70;78.47
6224;BME280;3145;42.726;23.342;2023-06-10T01:08:59;71344.34;;;-142.70;78.59
6224;BME280;3145;42.726;23.342;2023-06-10T01:11:33;71346.34;;;-142.70;78.80
6224;BME280;3145;42.726;23.342;2023-06-10T01:14:01;71342.31;;;-142.70;79.21
6224;BME280;3145;42.726;23.342;2023-06-10T01:16:29;71340.31;;;-142.70;79.33
6224;BME280;3145;42.726;23.342;2023-06-10T01:18:56;71348.38;;;-142.70;79.59
6224;BME280;3145;42.726;23.342;2023-06-10T01:21:24;71348.38;;;-142.70;80.02
6224;BME280;3145;42.726;23.342;2023-06-10T01:23:52;71352.41;;;-142.70;80.61
6224;BME280;3145;42.726;23.342;2023-06-10T01:26:23;71344.34;;;-142.70;81.10
6224;BME280;3145;42.726;23.342;2023-06-10T01:28:57;71340.31;;;-142.70;81.56
6224;BME280;3145;42.726;23.342;2023-06-10T01:31:32;71340.31;;;-142.70;81.75
6224;BME280;3145;42.726;23.342;2023-06-10T01:34:07;71340.31;;;-142.70;81.93
6224;BME280;3145;42.726;23.342;2023-06-10T01:36:36;71344.34;;;-142.70;82.49
6224;BME280;3145;42.726;23.342;2023-06-10T01:39:04;71338.31;;;-142.70;82.90
6224;BME280;3145;42.726;23.342;2023-06-10T01:41:32;71336.28;;;-142.70;83.31
6224;BME280;3145;42.726;23.342;2023-06-10T01:43:59;71336.28;;;-142.70;83.48
6224;BME280;3145;42.726;23.342;2023-06-10T01:46:26;71320.19;;;-142.70;83.79
6224;BME280;3145;42.726;23.342;2023-06-10T01:48:52;71320.19;;;-142.70;84.09
6224;BME280;3145;42.726;23.342;2023-06-10T01:51:19;71316.16;;;-142.70;84.22
6224;BME280;3145;42.726;23.342;2023-06-10T01:53:47;71308.09;;;-142.70;84.60
6224;BME280;3145;42.726;23.342;2023-06-10T01:56:14;71308.09;;;-142.70;84.37
6224;BME280;3145;42.726;23.342;2023-06-10T01:58:43;71308.09;;;-142.70;84.50
6224;BME280;3145;42.726;23.342;2023-06-10T02:01:10;71304.06;;;-142.70;84.62
6224;BME280;3145;42.726;23.342;2023-06-10T02:03:37;71302.06;;;-142.70;84.58
6224;BME280;3145;42.726;23.342;2023-06-10T02:06:04;71308.09;;;-142.70;84.27
6224;BME280;3145;42.726;23.342;2023-06-10T02:08:31;71304.06;;;-142.70;84.08
6224;BME280;3145;42.726;23.342;2023-06-10T02:10:59;71310.09;;;-142.70;84.78
6224;BME280;3145;42.726;23.342;2023-06-10T02:13:25;71308.09;;;-142.70;84.94
6224;BME280;3145;42.726;23.342;2023-06-10T02:15:52;71314.13;;;-142.70;84.55
6224;BME280;3145;42.726;23.342;2023-06-10T02:18:20;71328.22;;;-142.70;84.57
6224;BME280;3145;42.726;23.342;2023-06-10T02:20:47;71324.19;;;-142.70;84.56
6224;BME280;3145;42.726;23.342;2023-06-10T02:23:14;71320.19;;;-142.70;85.23
6224;BME280;3145;42.726;23.342;2023-06-10T02:25:40;71324.19;;;-142.70;85.77
6224;BME280;3145;42.726;23.342;2023-06-10T02:28:08;71348.38;;;-142.70;86.65
6224;BME280;3145;42.726;23.342;2023-06-10T02:30:39;71362.47;;;-142.70;87.75
6224;BME280;3145;42.726;23.342;2023-06-10T02:33:06;71376.56;;;-142.70;88.86
6224;BME280;3145;42.726;23.342;2023-06-10T02:35:35;71368.50;;;-142.70;89.71
6224;BME280;3145;42.726;23.342;2023-06-10T02:38:02;71370.53;;;-142.70;90.02
6224;BME280;3145;42.726;23.342;2023-06-10T02:40:29;71364.47;;;-142.70;90.16
6224;BME280;3145;42.726;23.342;2023-06-10T02:42:56;71360.44;;;-142.70;90.39
6224;BME280;3145;42.726;23.342;2023-06-10T02:45:24;71352.41;;;-142.70;90.55
6224;BME280;3145;42.726;23.342;2023-06-10T02:47:51;71348.38;;;-142.70;90.94
6224;BME280;3145;42.726;23.342;2023-06-10T02:50:17;71340.31;;;-142.70;91.02
6224;BME280;3145;42.726;23.342;2023-06-10T02:52:44;71332.25;;;-142.70;90.97
6224;BME280;3145;42.726;23.342;2023-06-10T02:55:11;71326.22;;;-142.70;90.57
6224;BME280;3145;42.726;23.342;2023-06-10T02:57:37;71318.16;;;-142.70;90.09
6224;BME280;3145;42.726;23.342;2023-06-10T03:00:05;71326.22;;;-142.70;89.35
6224;BME280;3145;42.726;23.342;2023-06-10T03:02:37;71362.47;;;-142.70;91.55
6224;BME280;3145;42.726;23.342;2023-06-10T03:05:04;71372.53;;;-142.70;92.35
6224;BME280;3145;42.726;23.342;2023-06-10T03:07:35;71382.59;;;-142.70;92.33
6224;BME280;3145;42.726;23.342;2023-06-10T03:10:02;71384.63;;;-142.70;93.31
6224;BME280;3145;42.726;23.342;2023-06-10T03:12:29;71384.63;;;-142.70;93.45
6224;BME280;3145;42.726;23.342;2023-06-10T03:14:56;71380.59;;;-142.70;93.30
6224;BME280;3145;42.726;23.342;2023-06-10T03:17:22;71388.66;;;-142.70;93.22
6224;BME280;3145;42.726;23.342;2023-06-10T03:19:51;71388.66;;;-142.70;92.04
6224;BME280;3145;42.726;23.342;2023-06-10T03:22:17;71404.75;;;-142.70;90.89
6224;BME280;3145;42.726;23.342;2023-06-10T03:24:44;71416.84;;;-142.70;89.25
6224;BME280;3145;42.726;23.342;2023-06-10T03:27:11;71422.88;;;-142.70;89.34
6224;BME280;3145;42.726;23.342;2023-06-10T03:29:39;71436.97;;;-142.70;89.41
6224;BME280;3145;42.726;23.342;2023-06-10T03:32:06;71432.94;;;-142.70;89.56
6224;BME280;3145;42.726;23.342;2023-06-10T03:34:33;71441.00;;;-142.70;89.61
6224;BME280;3145;42.726;23.342;2023-06-10T03:37:01;71439.00;;;-142.70;89.93
6224;BME280;3145;42.726;23.342;2023-06-10T03:39:28;71453.09;;;-142.70;90.24
6224;BME280;3145;42.726;23.342;2023-06-10T03:41:55;71436.97;;;-142.70;89.41
6224;BME280;3145;42.726;23.342;2023-06-10T03:44:22;71436.97;;;-142.70;89.42
6224;BME280;3145;42.726;23.342;2023-06-10T03:46:49;71428.91;;;-142.70;89.03
6224;BME280;3145;42.726;23.342;2023-06-10T03:49:15;71436.97;;;-142.70;87.38
6224;BME280;3145;42.726;23.342;2023-06-10T03:51:42;71449.06;;;-142.70;87.34
6224;BME280;3145;42.726;23.342;2023-06-10T03:54:11;71463.16;;;-142.70;87.54
6224;BME280;3145;42.726;23.342;2023-06-10T03:56:39;71469.19;;;-142.70;87.84
6224;BME280;3145;42.726;23.342;2023-06-10T03:59:05;71465.16;;;-142.70;88.43
6224;BME280;3145;42.726;23.342;2023-06-10T04:01:32;71469.19;;;-142.70;89.07
6224;BME280;3145;42.726;23.342;2023-06-10T04:04:00;71457.13;;;-142.70;89.58
6224;BME280;3145;42.726;23.342;2023-06-10T04:06:27;71457.13;;;-142.70;88.29
6224;BME280;3145;42.726;23.342;2023-06-10T04:08:54;71481.28;;;-142.70;88.25
6224;BME280;3145;42.726;23.342;2023-06-10T04:11:23;71491.34;;;-142.70;89.37
6224;BME280;3145;42.726;23.342;2023-06-10T04:13:50;71519.53;;;-142.70;91.17
6224;BME280;3145;42.726;23.342;2023-06-10T04:16:17;71511.50;;;-142.70;91.55
6224;BME280;3145;42.726;23.342;2023-06-10T04:18:44;71509.47;;;-142.70;92.26
6224;BME280;3145;42.726;23.342;2023-06-10T04:21:10;71505.44;;;-142.70;90.80
6224;BME280;3145;42.726;23.342;2023-06-10T04:23:37;71501.44;;;-142.70;89.35
6224;BME280;3145;42.726;23.342;2023-06-10T04:26:04;71491.34;;;-142.70;88.61
6224;BME280;3145;42.726;23.342;2023-06-10T04:28:33;71493.38;;;-142.70;88.53
6224;BME280;3145;42.726;23.342;2023-06-10T04:31:01;71489.34;;;-142.70;89.21
6224;BME280;3145;42.726;23.342;2023-06-10T04:33:29;71477.25;;;-142.70;89.69
6224;BME280;3145;42.726;23.342;2023-06-10T04:35:56;71477.25;;;-142.70;90.06
6224;BME280;3145;42.726;23.342;2023-06-10T04:38:22;71477.25;;;-142.70;90.67
6224;BME280;3145;42.726;23.342;2023-06-10T04:40:49;71463.16;;;-142.70;91.52
6224;BME280;3145;42.726;23.342;2023-06-10T04:43:16;71449.06;;;-142.70;91.91
6224;BME280;3145;42.726;23.342;2023-06-10T04:45:44;71436.97;;;-142.70;92.13
6224;BME280;3145;42.726;23.342;2023-06-10T04:48:11;71432.94;;;-142.70;90.87
6224;BME280;3145;42.726;23.342;2023-06-10T04:50:37;71420.88;;;-142.70;88.92
6224;BME280;3145;42.726;23.342;2023-06-10T04:53:04;71432.94;;;-142.70;88.92
6224;BME280;3145;42.726;23.342;2023-06-10T04:55:31;71436.97;;;-142.70;89.11
6224;BME280;3145;42.726;23.342;2023-06-10T04:57:58;71430.94;;;-142.70;89.24
6224;BME280;3145;42.726;23.342;2023-06-10T05:00:25;71424.91;;;-142.70;89.53
6224;BME280;3145;42.726;23.342;2023-06-10T05:02:53;71426.91;;;-142.70;90.17
6224;BME280;3145;42.726;23.342;2023-06-10T05:05:21;71414.81;;;-142.70;89.63
6224;BME280;3145;42.726;23.342;2023-06-10T05:07:48;71414.81;;;-142.70;89.86
6224;BME280;3145;42.726;23.342;2023-06-10T05:10:14;71404.75;;;-142.70;90.29
6224;BME280;3145;42.726;23.342;2023-06-10T05:12:41;71400.72;;;-142.70;89.85
6224;BME280;3145;42.726;23.342;2023-06-10T05:15:09;71400.72;;;-142.70;89.54
6224;BME280;3145;42.726;23.342;2023-06-10T05:17:36;71392.69;;;-142.70;89.35
6224;BME280;3145;42.726;23.342;2023-06-10T05:20:04;71376.56;;;-142.70;89.31
6224;BME280;3145;42.726;23.342;2023-06-10T05:22:31;71364.47;;;-142.70;88.77
6224;BME280;3145;42.726;23.342;2023-06-10T05:24:58;71364.47;;;-142.70;89.25
6224;BME280;3145;42.726;23.342;2023-06-10T05:27:25;71346.34;;;-142.70;89.40
6224;BME280;3145;42.726;23.342;2023-06-10T05:29:51;71336.28;;;-142.70;88.25
6224;BME280;3145;42.726;23.342;2023-06-10T05:32:18;71312.13;;;-142.70;87.81
6224;BME280;3145;42.726;23.342;2023-06-10T05:34:45;71296.00;;;-142.70;87.16
6224;BME280;3145;42.726;23.342;2023-06-10T05:37:13;71283.94;;;-142.70;86.64
6224;BME280;3145;42.726;23.342;2023-06-10T05:39:40;71273.84;;;-142.70;86.32
6224;BME280;3145;42.726;23.342;2023-06-10T05:42:07;71259.75;;;-142.70;85.46
6224;BME280;3145;42.726;23.342;2023-06-10T05:44:34;71251.72;;;-142.70;85.21
6224;BME280;3145;42.726;23.342;2023-06-10T05:47:00;71243.66;;;-142.70;84.37
6224;BME280;3145;42.726;23.342;2023-06-10T05:49:28;71233.59;;;-142.70;84.35
6224;BME280;3145;42.726;23.342;2023-06-10T05:51:54;71219.50;;;-142.70;84.15
6224;BME280;3145;42.726;23.342;2023-06-10T05:54:25;71201.38;;;-142.70;84.13
6224;BME280;3145;42.726;23.342;2023-06-10T05:56:52;71187.28;;;-142.70;82.99
6224;BME280;3145;42.726;23.342;2023-06-10T05:59:18;71183.25;;;-142.70;82.51
6224;BME280;3145;42.726;23.342;2023-06-10T06:01:45;71167.13;;;-142.70;81.76
6224;BME280;3145;42.726;23.342;2023-06-10T06:04:12;71163.09;;;-142.70;81.28
6224;BME280;3145;42.726;23.342;2023-06-10T06:06:39;71155.06;;;-142.70;79.50
6224;BME280;3145;42.726;23.342;2023-06-10T06:09:06;71155.06;;;-142.70;79.30
6224;BME280;3145;42.726;23.342;2023-06-10T06:11:34;71142.97;;;-142.70;77.78
6224;BME280;3145;42.726;23.342;2023-06-10T06:14:01;71126.84;;;-142.70;77.23
6224;BME280;3145;42.726;23.342;2023-06-10T06:16:28;71118.81;;;-142.70;76.52
6224;BME280;3145;42.726;23.342;2023-06-10T06:18:55;71142.97;;;-142.70;78.08
6224;BME280;3145;42.726;23.342;2023-06-10T06:21:21;71114.78;;;-142.70;77.63
6224;BME280;3145;42.726;23.342;2023-06-10T06:23:48;71102.69;;;-142.70;77.35
6224;BME280;3145;42.726;23.342;2023-06-10T06:26:15;71090.63;;;-142.70;76.07
6224;BME280;3145;42.726;23.342;2023-06-10T06:28:43;71046.31;;;-142.70;78.79
6224;BME280;3145;42.726;23.342;2023-06-10T06:31:10;71028.19;;;-142.70;76.63
6224;BME280;3145;42.726;23.342;2023-06-10T06:33:36;71006.03;;;-142.70;74.20
6224;BME280;3145;42.726;23.342;2023-06-10T06:36:03;71008.06;;;-142.70;72.91
6224;BME280;3145;42.726;23.342;2023-06-10T06:38:30;70997.97;;;-142.70;72.79
6224;BME280;3145;42.726;23.342;2023-06-10T06:40:57;70981.88;;;-142.70;71.41
6224;BME280;3145;42.726;23.342;2023-06-10T06:43:28;70989.94;;;-142.70;69.53
6224;BME280;3145;42.726;23.342;2023-06-10T06:45:56;71004.03;;;-142.70;70.22
6224;BME280;3145;42.726;23.342;2023-06-10T06:48:23;70997.97;;;-142.70;69.57
6224;BME280;3145;42.726;23.342;2023-06-10T06:50:49;70995.97;;;-142.70;68.53
6224;BME280;3145;42.726;23.342;2023-06-10T06:53:16;70995.97;;;-142.70;68.54
6224;BME280;3145;42.726;23.342;2023-06-10T06:55:43;70983.88;;;-142.70;67.51
6224;BME280;3145;42.726;23.342;2023-06-10T06:58:09;70971.81;;;-142.70;67.66
6224;BME280;3145;42.726;23.342;2023-06-10T07:00:36;70963.75;;;-142.70;68.84
6224;BME280;3145;42.726;23.342;2023-06-10T07:03:04;70945.63;;;-142.70;67.53
6224;BME280;3145;42.726;23.342;2023-06-10T07:05:31;70947.66;;;-142.70;66.45
6224;BME280;3145;42.726;23.342;2023-06-10T07:07:58;70945.63;;;-142.70;65.07
6224;BME280;3145;42.726;23.342;2023-06-10T07:10:25;70945.63;;;-142.70;63.49
6224;BME280;3145;42.726;23.342;2023-06-10T07:12:52;70949.66;;;-142.70;62.71
6224;BME280;3145;42.726;23.342;2023-06-10T07:15:19;70919.47;;;-142.70;62.61
6224;BME280;3145;42.726;23.342;2023-06-10T07:17:46;70913.41;;;-142.70;60.28
6224;BME280;3145;42.726;23.342;2023-06-10T07:20:14;70893.28;;;-142.70;59.96
6224;BME280;3145;42.726;23.342;2023-06-10T07:22:41;70885.22;;;-142.70;58.96
6224;BME280;3145;42.726;23.342;2023-06-10T07:25:08;70848.97;;;-142.70;58.97
6224;BME280;3145;42.726;23.342;2023-06-10T07:27:35;70764.41;;;-142.70;56.60
6224;BME280;3145;42.726;23.342;2023-06-10T07:30:03;70691.94;;;-142.70;53.96
6224;BME280;3145;42.726;23.342;2023-06-10T07:32:30;70631.53;;;-142.70;53.90
6224;BME280;3145;42.726;23.342;2023-06-10T07:34:56;70625.50;;;-142.70;49.67
6224;BME280;3145;42.726;23.342;2023-06-10T07:37:25;70639.59;;;-142.70;47.38
6224;BME280;3145;42.726;23.342;2023-06-10T07:39:51;70659.72;;;-142.70;47.82
6224;BME280;3145;42.726;23.342;2023-06-10T07:42:18;70619.44;;;-142.70;50.52
6224;BME280;3145;42.726;23.342;2023-06-10T07:44:45;70561.06;;;-142.70;45.57
6224;BME280;3145;42.726;23.342;2023-06-10T07:47:11;70510.72;;;-142.70;44.91
6224;BME280;3145;42.726;23.342;2023-06-10T07:49:38;70462.41;;;-142.70;43.50
6224;BME280;3145;42.726;23.342;2023-06-10T07:52:07;70450.31;;;-142.70;43.16
6224;BME280;3145;42.726;23.342;2023-06-10T07:54:36;70460.41;;;-142.70;43.34
6224;BME280;3145;42.726;23.342;2023-06-10T07:57:03;70414.09;;;-142.70;43.68
6224;BME280;3145;42.726;23.342;2023-06-10T07:59:29;70365.78;;;-142.70;43.12
6224;BME280;3145;42.726;23.342;2023-06-10T08:01:56;70329.53;;;-142.70;42.78
6224;BME280;3145;42.726;23.342;2023-06-10T08:04:23;70319.47;;;-142.70;40.82
6224;BME280;3145;42.726;23.342;2023-06-10T08:06:50;70283.22;;;-142.70;40.87
6224;BME280;3145;42.726;23.342;2023-06-10T08:09:16;70281.22;;;-142.70;39.84
6224;BME280;3145;42.726;23.342;2023-06-10T08:11:46;70321.47;;;-142.70;40.52
6224;BME280;3145;42.726;23.342;2023-06-10T08:14:13;70281.22;;;-142.70;39.94
6224;BME280;3145;42.726;23.342;2023-06-10T08:16:39;70307.38;;;-142.70;39.01
6224;BME280;3145;42.726;23.342;2023-06-10T08:19:06;70261.09;;;-142.70;39.54
6224;BME280;3145;42.726;23.342;2023-06-10T08:21:34;70224.84;;;-142.70;36.46
6224;BME280;3145;42.726;23.342;2023-06-10T08:24:02;70188.63;;;-142.70;35.65
6224;BME280;3145;42.726;23.342;2023-06-10T08:26:29;70176.53;;;-142.70;35.53
6224;BME280;3145;42.726;23.342;2023-06-10T08:28:57;70128.22;;;-142.70;36.84
6224;BME280;3145;42.726;23.342;2023-06-10T08:31:24;70120.16;;;-142.70;37.01
6224;BME280;3145;42.726;23.342;2023-06-10T08:33:50;70212.78;;;-142.70;36.59
6224;BME280;3145;42.726;23.342;2023-06-10T08:36:17;70236.94;;;-142.70;37.52
6224;BME280;3145;42.726;23.342;2023-06-10T08:38:44;70307.38;;;-142.70;36.88
6224;BME280;3145;42.726;23.342;2023-06-10T08:41:12;70303.38;;;-142.70;37.17
6224;BME280;3145;42.726;23.342;2023-06-10T08:43:44;70269.13;;;-142.70;38.22
6224;BME280;3145;42.726;23.342;2023-06-10T08:46:14;70291.28;;;-142.70;38.13
6224;BME280;3145;42.726;23.342;2023-06-10T08:48:42;70283.22;;;-142.70;36.16
6224;BME280;3145;42.726;23.342;2023-06-10T08:51:10;70220.81;;;-142.70;36.64
6224;BME280;3145;42.726;23.342;2023-06-10T08:53:40;70160.44;;;-142.70;36.89
6224;BME280;3145;42.726;23.342;2023-06-10T08:56:09;70144.31;;;-142.70;33.73
6224;BME280;3145;42.726;23.342;2023-06-10T08:58:36;70232.91;;;-142.70;33.86
6224;BME280;3145;42.726;23.342;2023-06-10T09:01:07;70218.81;;;-142.70;35.68
6224;BME280;3145;42.726;23.342;2023-06-10T09:03:36;70285.25;;;-142.70;35.65
6224;BME280;3145;42.726;23.342;2023-06-10T09:06:05;70253.03;;;-142.70;36.87
6224;BME280;3145;42.726;23.342;2023-06-10T09:08:33;70232.91;;;-142.70;36.92
6224;BME280;3145;42.726;23.342;2023-06-10T09:11:00;70216.78;;;-142.70;36.06
6224;BME280;3145;42.726;23.342;2023-06-10T09:13:27;70172.50;;;-142.70;36.02
6224;BME280;3145;42.726;23.342;2023-06-10T09:15:54;70112.13;;;-142.70;34.75
6224;BME280;3145;42.726;23.342;2023-06-10T09:18:25;70087.97;;;-142.70;34.28
6224;BME280;3145;42.726;23.342;2023-06-10T09:20:54;70180.56;;;-142.70;34.48
6224;BME280;3145;42.726;23.342;2023-06-10T09:23:21;70329.53;;;-142.70;37.09
6224;BME280;3145;42.726;23.342;2023-06-10T09:25:55;70365.78;;;-142.70;36.87
6224;BME280;3145;42.726;23.342;2023-06-10T09:28:22;70331.53;;;-142.70;36.94
6224;BME280;3145;42.726;23.342;2023-06-10T09:30:49;70337.59;;;-142.70;37.02
6224;BME280;3145;42.726;23.342;2023-06-10T09:33:16;70389.94;;;-142.70;37.27
6224;BME280;3145;42.726;23.342;2023-06-10T09:35:47;70371.81;;;-142.70;38.60
6224;BME280;3145;42.726;23.342;2023-06-10T09:38:20;70373.81;;;-142.70;37.02
6224;BME280;3145;42.726;23.342;2023-06-10T09:40:51;70341.63;;;-142.70;37.37
6224;BME280;3145;42.726;23.342;2023-06-10T09:43:18;70281.22;;;-142.70;38.03
6224;BME280;3145;42.726;23.342;2023-06-10T09:45:47;70253.03;;;-142.70;37.79
6224;BME280;3145;42.726;23.342;2023-06-10T09:48:14;70224.84;;;-142.70;36.75
6224;BME280;3145;42.726;23.342;2023-06-10T09:50:42;70228.88;;;-142.70;36.42
6224;BME280;3145;42.726;23.342;2023-06-10T09:53:10;70351.69;;;-142.70;36.71
6224;BME280;3145;42.726;23.342;2023-06-10T09:55:39;70395.97;;;-142.70;37.75
6224;BME280;3145;42.726;23.342;2023-06-10T09:58:06;70385.91;;;-142.70;36.24
6224;BME280;3145;42.726;23.342;2023-06-10T10:00:33;70414.09;;;-142.70;36.74
6224;BME280;3145;42.726;23.342;2023-06-10T10:03:00;70406.03;;;-142.70;36.33
6224;BME280;3145;42.726;23.342;2023-06-10T10:05:28;70470.47;;;-142.70;37.42
6224;BME280;3145;42.726;23.342;2023-06-10T10:07:55;70426.16;;;-142.70;37.44
6224;BME280;3145;42.726;23.342;2023-06-10T10:10:23;70357.72;;;-142.70;39.08
6224;BME280;3145;42.726;23.342;2023-06-10T10:12:54;70271.16;;;-142.70;37.64
6224;BME280;3145;42.726;23.342;2023-06-10T10:15:24;70228.88;;;-142.70;35.95
6224;BME280;3145;42.726;23.342;2023-06-10T10:17:55;70271.16;;;-142.70;37.03
6224;BME280;3145;42.726;23.342;2023-06-10T10:20:27;70222.84;;;-142.70;35.60
6224;BME280;3145;42.726;23.342;2023-06-10T10:22:57;70180.56;;;-142.70;36.20
6224;BME280;3145;42.726;23.342;2023-06-10T10:25:27;70148.34;;;-142.70;35.47
6224;BME280;3145;42.726;23.342;2023-06-10T10:27:58;70180.56;;;-142.70;35.05
6224;BME280;3145;42.726;23.342;2023-06-10T10:30:28;70214.78;;;-142.70;35.17
6224;BME280;3145;42.726;23.342;2023-06-10T10:32:57;70277.19;;;-142.70;36.32
6224;BME280;3145;42.726;23.342;2023-06-10T10:35:25;70202.69;;;-142.70;35.48
6224;BME280;3145;42.726;23.342;2023-06-10T10:37:54;70202.69;;;-142.70;35.17
6224;BME280;3145;42.726;23.342;2023-06-10T10:40:21;70152.38;;;-142.70;35.36
6224;BME280;3145;42.726;23.342;2023-06-10T10:42:49;70148.34;;;-142.70;34.65
6224;BME280;3145;42.726;23.342;2023-06-10T10:45:17;70176.53;;;-142.70;33.92
6224;BME280;3145;42.726;23.342;2023-06-10T10:47:45;70200.69;;;-142.70;35.47
6224;BME280;3145;42.726;23.342;2023-06-10T10:50:14;70176.53;;;-142.70;36.06
6224;BME280;3145;42.726;23.342;2023-06-10T10:52:52;70244.97;;;-142.70;36.44
6224;BME280;3145;42.726;23.342;2023-06-10T10:55:20;70208.75;;;-142.70;36.09
6224;BME280;3145;42.726;23.342;2023-06-10T10:57:54;70174.53;;;-142.70;36.67
6224;BME280;3145;42.726;23.342;2023-06-10T11:00:27;70152.38;;;-142.70;35.69
6224;BME280;3145;42.726;23.342;2023-06-10T11:02:58;70232.91;;;-142.70;36.89
6224;BME280;3145;42.726;23.342;2023-06-10T11:05:31;70309.41;;;-142.70;37.22
6224;BME280;3145;42.726;23.342;2023-06-10T11:07:58;70333.56;;;-142.70;38.05
6224;BME280;3145;42.726;23.342;2023-06-10T11:10:30;70402.00;;;-142.70;37.41
6224;BME280;3145;42.726;23.342;2023-06-10T11:12:57;70404.03;;;-142.70;38.13
6224;BME280;3145;42.726;23.342;2023-06-10T11:15:26;70426.16;;;-142.70;37.88
6224;BME280;3145;42.726;23.342;2023-06-10T11:18:10;70444.28;;;-142.70;37.34
6224;BME280;3145;42.726;23.342;2023-06-10T11:20:58;70414.09;;;-142.70;36.26
6224;BME280;3145;42.726;23.342;2023-06-10T11:26:15;70379.88;;;-142.70;34.83
6224;BME280;3145;42.726;23.342;2023-06-10T11:29:09;70291.28;;;-142.70;33.21
6224;BME280;3145;42.726;23.342;2023-06-10T11:31:43;70200.69;;;-142.70;33.59
6224;BME280;3145;42.726;23.342;2023-06-10T11:34:10;70180.56;;;-142.70;32.57
6224;BME280;3145;42.726;23.342;2023-06-10T11:36:39;70208.75;;;-142.70;32.57
6224;BME280;3145;42.726;23.342;2023-06-10T11:39:11;70184.59;;;-142.70;32.56
6224;BME280;3145;42.726;23.342;2023-06-10T11:41:39;70172.50;;;-142.70;31.86
6224;BME280;3145;42.726;23.342;2023-06-10T11:44:08;70142.31;;;-142.70;32.00
6224;BME280;3145;42.726;23.342;2023-06-10T11:46:35;70112.13;;;-142.70;32.77
6224;BME280;3145;42.726;23.342;2023-06-10T11:49:04;70120.16;;;-142.70;32.71
6224;BME280;3145;42.726;23.342;2023-06-10T11:51:33;70100.03;;;-142.70;31.70
6224;BME280;3145;42.726;23.342;2023-06-10T11:54:00;70120.16;;;-142.70;30.89
6224;BME280;3145;42.726;23.342;2023-06-10T11:56:28;70164.44;;;-142.70;31.70
6224;BME280;3145;42.726;23.342;2023-06-10T11:58:56;70182.56;;;-142.70;30.63
6224;BME280;3145;42.726;23.342;2023-06-10T12:01:24;70218.81;;;-142.70;30.82
6224;BME280;3145;42.726;23.342;2023-06-10T12:03:58;70251.03;;;-142.70;30.46
6224;BME280;3145;42.726;23.342;2023-06-10T12:06:26;70240.94;;;-142.70;30.83
6224;BME280;3145;42.726;23.342;2023-06-10T12:08:54;70279.19;;;-142.70;32.18
6224;BME280;3145;42.726;23.342;2023-06-10T12:11:21;70283.22;;;-142.70;32.62
6224;BME280;3145;42.726;23.342;2023-06-10T12:13:49;70281.22;;;-142.70;31.38
6224;BME280;3145;42.726;23.342;2023-06-10T12:16:16;70269.13;;;-142.70;31.31
6224;BME280;3145;42.726;23.342;2023-06-10T12:18:45;70255.03;;;-142.70;30.98
6224;BME280;3145;42.726;23.342;2023-06-10T12:21:16;70255.03;;;-142.70;31.53
6224;BME280;3145;42.726;23.342;2023-06-10T12:24:03;70299.34;;;-142.70;31.76
6224;BME280;3145;42.726;23.342;2023-06-10T12:26:38;70301.34;;;-142.70;31.18
6224;BME280;3145;42.726;23.342;2023-06-10T12:29:18;70267.13;;;-142.70;32.57
6224;BME280;3145;42.726;23.342;2023-06-10T12:31:59;70261.09;;;-142.70;31.35
6224;BME280;3145;42.726;23.342;2023-06-10T12:34:36;70236.94;;;-142.70;31.15
6224;BME280;3145;42.726;23.342;2023-06-10T12:37:04;70216.78;;;-142.70;30.49
6224;BME280;3145;42.726;23.342;2023-06-10T12:39:33;70188.63;;;-142.70;29.62
6224;BME280;3145;42.726;23.342;2023-06-10T12:42:01;70150.38;;;-142.70;29.88
6224;BME280;3145;42.726;23.342;2023-06-10T12:44:31;70108.09;;;-142.70;30.52
6224;BME280;3145;42.726;23.342;2023-06-10T12:46:58;70083.94;;;-142.70;29.31
6224;BME280;3145;42.726;23.342;2023-06-10T12:49:25;70073.88;;;-142.70;30.21
6224;BME280;3145;42.726;23.342;2023-06-10T12:51:53;70047.69;;;-142.70;30.29
6224;BME280;3145;42.726;23.342;2023-06-10T12:54:20;70039.66;;;-142.70;30.11
6224;BME280;3145;42.726;23.342;2023-06-10T12:56:48;70035.63;;;-142.70;30.92